sensor_id;sensor_type;location;lat;lon;timestamp;pressure;altitude;pressure_sealevel;temperature;humidity
48053;BME280;33824;51.600;5.718;2023-05-25T00:00:08;102373.16;;;10.88;85.46
48053;BME280;33824;51.600;5.718;2023-05-25T00:02:54;102370.34;;;10.80;85.78
48053;BME280;33824;51.600;5.718;2023-05-25T00:05:20;102372.28;;;10.78;85.74
48053;BME280;33824;51.600;5.718;2023-05-25T00:07:46;102372.69;;;10.73;86.50
48053;BME280;33824;51.600;5.718;2023-05-25T00:10:12;102372.13;;;10.70;86.78
48053;BME280;33824;51.600;5.718;2023-05-25T00:12:38;102374.53;;;10.73;87.11
48053;BME280;33824;51.600;5.718;2023-05-25T00:15:06;102369.72;;;10.67;87.11
48053;BME280;33824;51.600;5.718;2023-05-25T00:17:32;102381.38;;;10.66;87.51
48053;BME280;33824;51.600;5.718;2023-05-25T00:19:58;102377.16;;;10.63;87.51
48053;BME280;33824;51.600;5.718;2023-05-25T00:22:37;102384.19;;;10.64;87.48
48053;BME280;33824;51.600;5.718;2023-05-25T00:25:03;102379.97;;;10.62;87.89
48053;BME280;33824;51.600;5.718;2023-05-25T00:27:29;102390.63;;;10.62;87.09
48053;BME280;33824;51.600;5.718;2023-05-25T00:29:56;102383.91;;;10.57;87.72
48053;BME280;33824;51.600;5.718;2023-05-25T00:32:21;102383.75;;;10.59;87.68
48053;BME280;33824;51.600;5.718;2023-05-25T00:34:47;102386.56;;;10.57;87.28
48053;BME280;33824;51.600;5.718;2023-05-25T00:37:13;102381.25;;;10.57;87.24
48053;BME280;33824;51.600;5.718;2023-05-25T00:39:39;102373.25;;;10.57;87.05
48053;BME280;33824;51.600;5.718;2023-05-25T00:42:05;102375.31;;;10.54;87.14
48053;BME280;33824;51.600;5.718;2023-05-25T00:44:32;102380.91;;;10.51;86.85
48053;BME280;33824;51.600;5.718;2023-05-25T00:46:58;102376.72;;;10.48;86.48
48053;BME280;33824;51.600;5.718;2023-05-25T00:49:24;102372.34;;;10.47;86.03
48053;BME280;33824;51.600;5.718;2023-05-25T00:51:50;102380.63;;;10.44;86.18
48053;BME280;33824;51.600;5.718;2023-05-25T00:54:17;102375.44;;;10.43;86.77
48053;BME280;33824;51.600;5.718;2023-05-25T00:56:50;102379.34;;;10.39;86.62
48053;BME280;33824;51.600;5.718;2023-05-25T00:59:30;102385.50;;;10.30;87.40
48053;BME280;33824;51.600;5.718;2023-05-25T01:02:02;102385.94;;;10.35;87.11
48053;BME280;33824;51.600;5.718;2023-05-25T01:04:31;102387.88;;;10.33;86.41
48053;BME280;33824;51.600;5.718;2023-05-25T01:06:58;102393.94;;;10.35;86.37
48053;BME280;33824;51.600;5.718;2023-05-25T01:09:26;102393.34;;;10.31;86.59
48053;BME280;33824;51.600;5.718;2023-05-25T01:11:55;102395.03;;;10.32;85.98
48053;BME280;33824;51.600;5.718;2023-05-25T01:14:22;102395.44;;;10.28;86.51
48053;BME280;33824;51.600;5.718;2023-05-25T01:16:50;102396.56;;;10.25;86.09
48053;BME280;33824;51.600;5.718;2023-05-25T01:19:16;102394.88;;;10.24;86.15
48053;BME280;33824;51.600;5.718;2023-05-25T01:27:13;102397.16;;;10.08;86.32
48053;BME280;33824;51.600;5.718;2023-05-25T01:29:42;102398.84;;;10.09;86.15
48053;BME280;33824;51.600;5.718;2023-05-25T01:32:08;102417.50;;;10.09;87.23
48053;BME280;33824;51.600;5.718;2023-05-25T01:34:35;102405.28;;;10.06;88.06
48053;BME280;33824;51.600;5.718;2023-05-25T01:37:02;102409.66;;;10.07;88.17
48053;BME280;33824;51.600;5.718;2023-05-25T01:39:27;102416.22;;;10.03;88.32
48053;BME280;33824;51.600;5.718;2023-05-25T01:41:53;102409.31;;;10.01;88.50
48053;BME280;33824;51.600;5.718;2023-05-25T01:44:19;102410.31;;;10.00;88.86
48053;BME280;33824;51.600;5.718;2023-05-25T01:46:49;102412.25;;;9.98;88.68
48053;BME280;33824;51.600;5.718;2023-05-25T01:49:40;102421.88;;;9.89;88.59
48053;BME280;33824;51.600;5.718;2023-05-25T01:52:27;102424.69;;;9.88;88.36
48053;BME280;33824;51.600;5.718;2023-05-25T01:55:02;102427.63;;;9.85;88.11
48053;BME280;33824;51.600;5.718;2023-05-25T01:57:34;102424.78;;;9.86;88.27
48053;BME280;33824;51.600;5.718;2023-05-25T02:00:02;102426.63;;;9.86;88.29
48053;BME280;33824;51.600;5.718;2023-05-25T02:02:28;102425.06;;;9.83;88.14
48053;BME280;33824;51.600;5.718;2023-05-25T02:04:55;102424.09;;;9.84;87.92
48053;BME280;33824;51.600;5.718;2023-05-25T02:07:24;102423.38;;;9.82;87.81
48053;BME280;33824;51.600;5.718;2023-05-25T02:09:50;102423.13;;;9.85;87.27
48053;BME280;33824;51.600;5.718;2023-05-25T02:12:15;102416.38;;;9.81;87.23
48053;BME280;33824;51.600;5.718;2023-05-25T02:14:41;102426.19;;;9.81;87.10
48053;BME280;33824;51.600;5.718;2023-05-25T02:17:07;102427.25;;;9.78;87.26
48053;BME280;33824;51.600;5.718;2023-05-25T02:19:34;102423.16;;;9.74;87.40
48053;BME280;33824;51.600;5.718;2023-05-25T02:21:59;102424.44;;;9.70;87.26
48053;BME280;33824;51.600;5.718;2023-05-25T02:24:25;102424.56;;;9.69;87.63
48053;BME280;33824;51.600;5.718;2023-05-25T02:26:51;102423.13;;;9.64;87.99
48053;BME280;33824;51.600;5.718;2023-05-25T02:29:17;102423.25;;;9.63;88.61
48053;BME280;33824;51.600;5.718;2023-05-25T02:31:42;102423.38;;;9.61;88.72
48053;BME280;33824;51.600;5.718;2023-05-25T02:34:08;102418.31;;;9.58;88.34
48053;BME280;33824;51.600;5.718;2023-05-25T02:36:34;102419.41;;;9.56;88.76
48053;BME280;33824;51.600;5.718;2023-05-25T02:39:00;102432.03;;;9.54;88.45
48053;BME280;33824;51.600;5.718;2023-05-25T02:41:26;102425.13;;;9.51;88.40
48053;BME280;33824;51.600;5.718;2023-05-25T02:43:52;102427.19;;;9.48;88.64
48053;BME280;33824;51.600;5.718;2023-05-25T02:46:18;102428.31;;;9.45;88.73
48053;BME280;33824;51.600;5.718;2023-05-25T02:48:44;102415.25;;;9.42;88.46
48053;BME280;33824;51.600;5.718;2023-05-25T02:51:10;102412.84;;;9.39;88.49
48053;BME280;33824;51.600;5.718;2023-05-25T02:53:36;102416.59;;;9.37;88.35
48053;BME280;33824;51.600;5.718;2023-05-25T02:56:02;102420.47;;;9.33;88.51
48053;BME280;33824;51.600;5.718;2023-05-25T02:58:29;102425.97;;;9.31;88.69
48053;BME280;33824;51.600;5.718;2023-05-25T03:00:55;102427.88;;;9.29;88.44
48053;BME280;33824;51.600;5.718;2023-05-25T03:03:21;102429.84;;;9.27;88.15
48053;BME280;33824;51.600;5.718;2023-05-25T03:05:47;102430.09;;;9.24;88.21
48053;BME280;33824;51.600;5.718;2023-05-25T03:08:13;102428.66;;;9.20;88.67
48053;BME280;33824;51.600;5.718;2023-05-25T03:10:38;102435.91;;;9.18;88.82
48053;BME280;33824;51.600;5.718;2023-05-25T03:13:04;102425.41;;;9.17;89.74
48053;BME280;33824;51.600;5.718;2023-05-25T03:15:29;102431.69;;;9.15;89.97
48053;BME280;33824;51.600;5.718;2023-05-25T03:17:55;102435.31;;;9.14;90.19
48053;BME280;33824;51.600;5.718;2023-05-25T03:20:26;102439.94;;;9.12;90.96
48053;BME280;33824;51.600;5.718;2023-05-25T03:22:52;102446.94;;;9.13;91.38
48053;BME280;33824;51.600;5.718;2023-05-25T03:25:17;102449.59;;;9.13;92.13
48053;BME280;33824;51.600;5.718;2023-05-25T03:27:43;102447.06;;;9.12;92.69
48053;BME280;33824;51.600;5.718;2023-05-25T03:30:08;102451.53;;;9.11;93.61
48053;BME280;33824;51.600;5.718;2023-05-25T03:32:34;102458.56;;;9.12;92.79
48053;BME280;33824;51.600;5.718;2023-05-25T03:35:02;102462.91;;;9.13;92.33
48053;BME280;33824;51.600;5.718;2023-05-25T03:37:27;102466.66;;;9.11;92.03
48053;BME280;33824;51.600;5.718;2023-05-25T03:39:53;102463.03;;;9.12;92.14
48053;BME280;33824;51.600;5.718;2023-05-25T03:42:18;102460.97;;;9.15;91.19
48053;BME280;33824;51.600;5.718;2023-05-25T03:44:44;102463.75;;;9.14;91.77
48053;BME280;33824;51.600;5.718;2023-05-25T03:47:09;102465.56;;;9.13;91.27
48053;BME280;33824;51.600;5.718;2023-05-25T03:49:35;102471.03;;;9.12;92.22
48053;BME280;33824;51.600;5.718;2023-05-25T03:52:01;102467.63;;;9.10;93.53
48053;BME280;33824;51.600;5.718;2023-05-25T03:54:26;102470.06;;;9.13;92.65
48053;BME280;33824;51.600;5.718;2023-05-25T03:56:52;102475.38;;;9.13;93.41
48053;BME280;33824;51.600;5.718;2023-05-25T03:59:18;102471.72;;;9.14;93.46
48053;BME280;33824;51.600;5.718;2023-05-25T04:01:44;102476.09;;;9.15;94.59
48053;BME280;33824;51.600;5.718;2023-05-25T04:04:09;102473.16;;;9.18;94.01
48053;BME280;33824;51.600;5.718;2023-05-25T04:06:35;102486.09;;;9.23;93.66
48053;BME280;33824;51.600;5.718;2023-05-25T04:09:04;102476.78;;;9.28;93.37
48053;BME280;33824;51.600;5.718;2023-05-25T04:11:30;102482.44;;;9.35;92.98
48053;BME280;33824;51.600;5.718;2023-05-25T04:13:55;102470.56;;;9.39;92.92
48053;BME280;33824;51.600;5.718;2023-05-25T04:16:21;102479.84;;;9.44;93.21
48053;BME280;33824;51.600;5.718;2023-05-25T04:18:47;102477.78;;;9.48;93.61
48053;BME280;33824;51.600;5.718;2023-05-25T04:21:12;102477.28;;;9.54;93.50
48053;BME280;33824;51.600;5.718;2023-05-25T04:23:38;102477.63;;;9.60;93.44
48053;BME280;33824;51.600;5.718;2023-05-25T04:26:03;102479.75;;;9.67;93.33
48053;BME280;33824;51.600;5.718;2023-05-25T04:28:30;102483.47;;;9.75;93.07
48053;BME280;33824;51.600;5.718;2023-05-25T04:30:57;102487.47;;;9.81;93.15
48053;BME280;33824;51.600;5.718;2023-05-25T04:33:22;102485.00;;;9.89;93.19
48053;BME280;33824;51.600;5.718;2023-05-25T04:35:49;102489.53;;;9.98;92.57
48053;BME280;33824;51.600;5.718;2023-05-25T04:38:15;102486.22;;;10.05;93.03
48053;BME280;33824;51.600;5.718;2023-05-25T04:40:44;102496.97;;;10.15;92.66
48053;BME280;33824;51.600;5.718;2023-05-25T04:43:13;102492.91;;;10.21;93.12
48053;BME280;33824;51.600;5.718;2023-05-25T04:45:43;102498.72;;;10.26;93.10
48053;BME280;33824;51.600;5.718;2023-05-25T04:48:10;102493.41;;;10.35;92.96
48053;BME280;33824;51.600;5.718;2023-05-25T04:50:38;102490.94;;;10.43;93.02
48053;BME280;33824;51.600;5.718;2023-05-25T04:53:05;102493.50;;;10.54;92.44
48053;BME280;33824;51.600;5.718;2023-05-25T04:55:31;102495.66;;;10.61;92.45
48053;BME280;33824;51.600;5.718;2023-05-25T04:57:56;102496.13;;;10.75;92.27
48053;BME280;33824;51.600;5.718;2023-05-25T05:00:23;102497.28;;;10.82;92.23
48053;BME280;33824;51.600;5.718;2023-05-25T05:02:49;102505.19;;;10.93;91.86
48053;BME280;33824;51.600;5.718;2023-05-25T05:05:16;102513.63;;;10.98;91.80
48053;BME280;33824;51.600;5.718;2023-05-25T05:07:42;102509.16;;;11.08;92.08
48053;BME280;33824;51.600;5.718;2023-05-25T05:10:08;102511.00;;;11.18;91.62
48053;BME280;33824;51.600;5.718;2023-05-25T05:12:33;102508.50;;;11.26;91.34
48053;BME280;33824;51.600;5.718;2023-05-25T05:14:59;102508.91;;;11.31;91.38
48053;BME280;33824;51.600;5.718;2023-05-25T05:17:25;102506.97;;;11.33;91.24
48053;BME280;33824;51.600;5.718;2023-05-25T05:19:52;102507.41;;;11.47;91.06
48053;BME280;33824;51.600;5.718;2023-05-25T05:22:18;102508.66;;;11.63;90.91
48053;BME280;33824;51.600;5.718;2023-05-25T05:24:44;102510.63;;;11.70;90.30
48053;BME280;33824;51.600;5.718;2023-05-25T05:27:12;102510.09;;;11.76;89.88
48053;BME280;33824;51.600;5.718;2023-05-25T05:29:39;102522.34;;;11.79;90.05
48053;BME280;33824;51.600;5.718;2023-05-25T05:32:05;102514.19;;;11.90;90.14
48053;BME280;33824;51.600;5.718;2023-05-25T05:34:32;102522.03;;;12.01;89.36
48053;BME280;33824;51.600;5.718;2023-05-25T05:36:57;102518.50;;;12.10;89.50
48053;BME280;33824;51.600;5.718;2023-05-25T05:39:25;102532.28;;;12.25;89.34
48053;BME280;33824;51.600;5.718;2023-05-25T05:41:51;102526.09;;;12.24;89.02
48053;BME280;33824;51.600;5.718;2023-05-25T05:44:20;102528.16;;;12.30;88.82
48053;BME280;33824;51.600;5.718;2023-05-25T05:46:45;102531.81;;;12.39;88.63
48053;BME280;33824;51.600;5.718;2023-05-25T05:49:11;102534.56;;;12.57;88.68
48053;BME280;33824;51.600;5.718;2023-05-25T05:51:37;102541.44;;;12.69;88.21
48053;BME280;33824;51.600;5.718;2023-05-25T05:54:03;102531.53;;;12.79;87.93
48053;BME280;33824;51.600;5.718;2023-05-25T05:56:28;102529.88;;;12.78;87.36
48053;BME280;33824;51.600;5.718;2023-05-25T05:58:54;102539.28;;;12.82;87.20
48053;BME280;33824;51.600;5.718;2023-05-25T06:01:20;102537.28;;;12.84;87.44
48053;BME280;33824;51.600;5.718;2023-05-25T06:03:47;102538.06;;;12.94;86.96
48053;BME280;33824;51.600;5.718;2023-05-25T06:06:12;102545.22;;;13.03;86.71
48053;BME280;33824;51.600;5.718;2023-05-25T06:08:38;102542.91;;;13.18;86.29
48053;BME280;33824;51.600;5.718;2023-05-25T06:11:07;102549.75;;;13.30;86.21
48053;BME280;33824;51.600;5.718;2023-05-25T06:13:33;102547.84;;;13.40;85.46
48053;BME280;33824;51.600;5.718;2023-05-25T06:15:59;102552.47;;;13.48;84.35
48053;BME280;33824;51.600;5.718;2023-05-25T06:18:24;102546.41;;;13.63;84.20
48053;BME280;33824;51.600;5.718;2023-05-25T06:20:50;102552.78;;;13.62;83.18
48053;BME280;33824;51.600;5.718;2023-05-25T06:23:16;102557.09;;;13.73;82.95
48053;BME280;33824;51.600;5.718;2023-05-25T06:25:43;102562.44;;;13.73;81.42
48053;BME280;33824;51.600;5.718;2023-05-25T06:28:09;102564.03;;;14.01;81.58
48053;BME280;33824;51.600;5.718;2023-05-25T06:30:35;102567.41;;;14.03;80.58
48053;BME280;33824;51.600;5.718;2023-05-25T06:33:00;102563.47;;;14.15;80.25
48053;BME280;33824;51.600;5.718;2023-05-25T06:35:26;102566.22;;;14.23;79.65
48053;BME280;33824;51.600;5.718;2023-05-25T06:37:51;102575.44;;;14.21;78.59
48053;BME280;33824;51.600;5.718;2023-05-25T06:40:17;102570.09;;;14.03;77.52
48053;BME280;33824;51.600;5.718;2023-05-25T06:42:43;102565.41;;;14.05;78.26
48053;BME280;33824;51.600;5.718;2023-05-25T06:45:09;102570.00;;;14.13;78.12
48053;BME280;33824;51.600;5.718;2023-05-25T06:47:35;102570.25;;;14.02;77.85
48053;BME280;33824;51.600;5.718;2023-05-25T06:50:01;102579.09;;;14.20;78.23
48053;BME280;33824;51.600;5.718;2023-05-25T06:52:28;102584.94;;;14.15;76.76
48053;BME280;33824;51.600;5.718;2023-05-25T06:54:54;102585.25;;;13.94;78.01
48053;BME280;33824;51.600;5.718;2023-05-25T06:57:21;102590.25;;;13.89;77.91
48053;BME280;33824;51.600;5.718;2023-05-25T06:59:46;102583.59;;;13.76;77.61
48053;BME280;33824;51.600;5.718;2023-05-25T07:02:12;102587.25;;;13.75;77.76
48053;BME280;33824;51.600;5.718;2023-05-25T07:04:37;102586.78;;;13.97;77.48
48053;BME280;33824;51.600;5.718;2023-05-25T07:07:03;102586.09;;;14.13;77.15
48053;BME280;33824;51.600;5.718;2023-05-25T07:09:29;102585.31;;;14.20;76.92
48053;BME280;33824;51.600;5.718;2023-05-25T07:11:54;102585.53;;;14.27;76.24
48053;BME280;33824;51.600;5.718;2023-05-25T07:14:20;102590.38;;;14.23;76.46
48053;BME280;33824;51.600;5.718;2023-05-25T07:16:46;102580.25;;;14.35;76.58
48053;BME280;33824;51.600;5.718;2023-05-25T07:19:12;102588.63;;;14.58;75.58
48053;BME280;33824;51.600;5.718;2023-05-25T07:21:38;102591.06;;;14.69;75.52
48053;BME280;33824;51.600;5.718;2023-05-25T07:24:03;102588.38;;;14.69;75.92
48053;BME280;33824;51.600;5.718;2023-05-25T07:26:30;102583.91;;;14.77;75.29
48053;BME280;33824;51.600;5.718;2023-05-25T07:28:56;102592.69;;;14.87;75.01
48053;BME280;33824;51.600;5.718;2023-05-25T07:31:22;102595.69;;;14.84;74.86
48053;BME280;33824;51.600;5.718;2023-05-25T07:33:48;102581.69;;;14.99;73.62
48053;BME280;33824;51.600;5.718;2023-05-25T07:36:14;102596.00;;;15.15;73.77
48053;BME280;33824;51.600;5.718;2023-05-25T07:38:40;102596.13;;;15.48;73.90
48053;BME280;33824;51.600;5.718;2023-05-25T07:41:06;102593.00;;;15.68;73.14
48053;BME280;33824;51.600;5.718;2023-05-25T07:43:32;102587.16;;;15.81;71.95
48053;BME280;33824;51.600;5.718;2023-05-25T07:45:59;102602.22;;;15.50;72.08
48053;BME280;33824;51.600;5.718;2023-05-25T07:48:26;102593.38;;;15.73;72.50
48053;BME280;33824;51.600;5.718;2023-05-25T07:50:52;102599.91;;;15.63;71.53
48053;BME280;33824;51.600;5.718;2023-05-25T07:53:17;102596.19;;;15.72;71.72
48053;BME280;33824;51.600;5.718;2023-05-25T07:55:43;102594.06;;;16.08;71.56
48053;BME280;33824;51.600;5.718;2023-05-25T07:58:08;102596.28;;;16.12;71.03
48053;BME280;33824;51.600;5.718;2023-05-25T08:00:34;102606.13;;;15.63;71.46
48053;BME280;33824;51.600;5.718;2023-05-25T08:02:59;102595.06;;;16.15;71.09
48053;BME280;33824;51.600;5.718;2023-05-25T08:05:27;102596.94;;;16.47;70.45
48053;BME280;33824;51.600;5.718;2023-05-25T08:07:52;102606.69;;;16.40;69.37
48053;BME280;33824;51.600;5.718;2023-05-25T08:10:19;102596.59;;;16.25;68.80
48053;BME280;33824;51.600;5.718;2023-05-25T08:12:44;102595.56;;;16.51;68.25
48053;BME280;33824;51.600;5.718;2023-05-25T08:15:10;102597.91;;;16.54;67.18
48053;BME280;33824;51.600;5.718;2023-05-25T08:17:37;102604.84;;;16.24;67.93
48053;BME280;33824;51.600;5.718;2023-05-25T08:20:06;102602.13;;;16.40;68.13
48053;BME280;33824;51.600;5.718;2023-05-25T08:22:34;102606.00;;;16.21;67.82
48053;BME280;33824;51.600;5.718;2023-05-25T08:25:04;102612.22;;;16.46;67.43
48053;BME280;33824;51.600;5.718;2023-05-25T08:27:31;102606.00;;;16.38;66.85
48053;BME280;33824;51.600;5.718;2023-05-25T08:29:56;102599.59;;;16.71;66.54
48053;BME280;33824;51.600;5.718;2023-05-25T08:32:22;102604.66;;;16.42;65.95
48053;BME280;33824;51.600;5.718;2023-05-25T08:34:47;102601.47;;;16.30;66.54
48053;BME280;33824;51.600;5.718;2023-05-25T08:37:13;102611.91;;;16.73;66.34
48053;BME280;33824;51.600;5.718;2023-05-25T08:39:38;102604.06;;;16.95;65.27
48053;BME280;33824;51.600;5.718;2023-05-25T08:42:04;102614.53;;;17.37;64.58
48053;BME280;33824;51.600;5.718;2023-05-25T08:44:31;102613.88;;;17.35;63.91
48053;BME280;33824;51.600;5.718;2023-05-25T08:46:59;102616.06;;;16.84;64.47
48053;BME280;33824;51.600;5.718;2023-05-25T08:49:30;102612.94;;;17.19;65.24
48053;BME280;33824;51.600;5.718;2023-05-25T08:51:58;102601.63;;;17.55;63.27
48053;BME280;33824;51.600;5.718;2023-05-25T08:54:33;102608.72;;;17.17;62.15
48053;BME280;33824;51.600;5.718;2023-05-25T08:57:10;102609.44;;;17.03;63.61
48053;BME280;33824;51.600;5.718;2023-05-25T08:59:46;102617.69;;;17.01;62.15
48053;BME280;33824;51.600;5.718;2023-05-25T09:02:33;102628.38;;;16.70;62.99
48053;BME280;33824;51.600;5.718;2023-05-25T09:05:00;102622.78;;;16.96;63.50
48053;BME280;33824;51.600;5.718;2023-05-25T09:07:27;102621.13;;;17.34;63.41
48053;BME280;33824;51.600;5.718;2023-05-25T09:09:54;102622.34;;;17.62;63.93
48053;BME280;33824;51.600;5.718;2023-05-25T09:12:21;102618.78;;;17.93;61.53
48053;BME280;33824;51.600;5.718;2023-05-25T09:14:47;102621.47;;;18.15;61.42
48053;BME280;33824;51.600;5.718;2023-05-25T09:17:14;102613.72;;;18.35;59.39
48053;BME280;33824;51.600;5.718;2023-05-25T09:19:40;102607.69;;;18.33;59.74
48053;BME280;33824;51.600;5.718;2023-05-25T09:22:06;102613.78;;;18.27;59.32
48053;BME280;33824;51.600;5.718;2023-05-25T09:24:32;102622.78;;;17.74;59.01
48053;BME280;33824;51.600;5.718;2023-05-25T09:26:58;102617.31;;;17.51;59.70
48053;BME280;33824;51.600;5.718;2023-05-25T09:29:25;102618.47;;;17.26;59.61
48053;BME280;33824;51.600;5.718;2023-05-25T09:31:50;102622.69;;;17.20;60.47
48053;BME280;33824;51.600;5.718;2023-05-25T09:34:16;102620.97;;;17.27;61.06
48053;BME280;33824;51.600;5.718;2023-05-25T09:36:41;102632.16;;;17.08;59.86
48053;BME280;33824;51.600;5.718;2023-05-25T09:39:11;102637.00;;;17.21;60.38
48053;BME280;33824;51.600;5.718;2023-05-25T09:41:41;102635.31;;;17.20;60.52
48053;BME280;33824;51.600;5.718;2023-05-25T09:44:07;102629.66;;;17.46;60.62
48053;BME280;33824;51.600;5.718;2023-05-25T09:46:33;102631.13;;;17.56;60.28
48053;BME280;33824;51.600;5.718;2023-05-25T09:49:07;102620.84;;;17.60;58.13
48053;BME280;33824;51.600;5.718;2023-05-25T09:51:34;102623.47;;;17.76;59.11
48053;BME280;33824;51.600;5.718;2023-05-25T09:54:04;102626.78;;;17.47;59.25
48053;BME280;33824;51.600;5.718;2023-05-25T09:56:33;102634.41;;;17.36;59.89
48053;BME280;33824;51.600;5.718;2023-05-25T09:58:58;102629.03;;;17.27;60.18
48053;BME280;33824;51.600;5.718;2023-05-25T10:01:24;102634.63;;;17.26;60.32
48053;BME280;33824;51.600;5.718;2023-05-25T10:03:51;102629.00;;;17.36;60.60
48053;BME280;33824;51.600;5.718;2023-05-25T10:06:23;102629.59;;;17.62;60.38
48053;BME280;33824;51.600;5.718;2023-05-25T10:08:49;102639.41;;;17.47;60.13
48053;BME280;33824;51.600;5.718;2023-05-25T10:11:17;102637.44;;;17.41;60.68
48053;BME280;33824;51.600;5.718;2023-05-25T10:13:44;102639.63;;;17.37;60.60
48053;BME280;33824;51.600;5.718;2023-05-25T10:16:13;102640.41;;;17.15;59.73
48053;BME280;33824;51.600;5.718;2023-05-25T10:18:53;102647.72;;;16.74;61.65
48053;BME280;33824;51.600;5.718;2023-05-25T10:21:21;102642.81;;;16.94;60.90
48053;BME280;33824;51.600;5.718;2023-05-25T10:23:50;102643.34;;;16.89;60.43
48053;BME280;33824;51.600;5.718;2023-05-25T10:26:23;102636.63;;;16.77;59.72
48053;BME280;33824;51.600;5.718;2023-05-25T10:28:50;102645.47;;;17.02;60.74
48053;BME280;33824;51.600;5.718;2023-05-25T10:31:18;102644.94;;;17.14;59.92
48053;BME280;33824;51.600;5.718;2023-05-25T10:33:44;102641.50;;;17.37;58.96
48053;BME280;33824;51.600;5.718;2023-05-25T10:36:11;102641.41;;;17.61;57.71
48053;BME280;33824;51.600;5.718;2023-05-25T10:38:41;102632.19;;;18.46;56.42
48053;BME280;33824;51.600;5.718;2023-05-25T10:41:10;102632.16;;;18.69;54.79
48053;BME280;33824;51.600;5.718;2023-05-25T10:43:39;102624.22;;;18.53;53.89
48053;BME280;33824;51.600;5.718;2023-05-25T10:46:05;102630.94;;;18.57;54.83
48053;BME280;33824;51.600;5.718;2023-05-25T10:48:38;102627.53;;;18.40;54.62
48053;BME280;33824;51.600;5.718;2023-05-25T10:51:04;102628.44;;;18.70;56.54
48053;BME280;33824;51.600;5.718;2023-05-25T10:53:31;102631.72;;;18.80;55.48
48053;BME280;33824;51.600;5.718;2023-05-25T10:56:04;102630.81;;;19.17;55.16
48053;BME280;33824;51.600;5.718;2023-05-25T10:58:33;102637.16;;;19.24;54.37
48053;BME280;33824;51.600;5.718;2023-05-25T11:01:01;102629.03;;;19.09;54.63
48053;BME280;33824;51.600;5.718;2023-05-25T11:09:23;102623.09;;;19.64;52.27
48053;BME280;33824;51.600;5.718;2023-05-25T11:17:08;102621.13;;;19.73;51.92
48053;BME280;33824;51.600;5.718;2023-05-25T11:19:45;102612.25;;;20.00;51.47
48053;BME280;33824;51.600;5.718;2023-05-25T11:22:16;102623.25;;;19.99;50.02
48053;BME280;33824;51.600;5.718;2023-05-25T11:24:43;102619.16;;;19.67;51.81
48053;BME280;33824;51.600;5.718;2023-05-25T11:27:10;102618.00;;;19.40;51.57
48053;BME280;33824;51.600;5.718;2023-05-25T11:29:36;102612.50;;;19.34;52.56
48053;BME280;33824;51.600;5.718;2023-05-25T11:32:02;102614.28;;;19.27;52.96
48053;BME280;33824;51.600;5.718;2023-05-25T11:34:29;102612.53;;;18.90;53.40
48053;BME280;33824;51.600;5.718;2023-05-25T11:36:58;102616.00;;;18.98;53.88
48053;BME280;33824;51.600;5.718;2023-05-25T11:39:27;102609.84;;;19.04;53.96
48053;BME280;33824;51.600;5.718;2023-05-25T11:41:55;102602.63;;;19.26;53.10
48053;BME280;33824;51.600;5.718;2023-05-25T11:44:28;102593.19;;;19.51;52.34
48053;BME280;33824;51.600;5.718;2023-05-25T11:46:55;102598.22;;;19.40;52.90
48053;BME280;33824;51.600;5.718;2023-05-25T11:49:22;102595.66;;;19.17;52.89
48053;BME280;33824;51.600;5.718;2023-05-25T11:51:50;102602.56;;;19.05;53.84
48053;BME280;33824;51.600;5.718;2023-05-25T11:54:26;102595.56;;;18.81;52.95
48053;BME280;33824;51.600;5.718;2023-05-25T11:56:53;102586.53;;;18.89;52.84
48053;BME280;33824;51.600;5.718;2023-05-25T11:59:22;102589.16;;;19.33;52.29
48053;BME280;33824;51.600;5.718;2023-05-25T12:01:55;102579.69;;;19.73;50.27
48053;BME280;33824;51.600;5.718;2023-05-25T12:04:21;102572.47;;;19.80;51.36
48053;BME280;33824;51.600;5.718;2023-05-25T12:06:46;102579.78;;;19.14;52.06
48053;BME280;33824;51.600;5.718;2023-05-25T12:09:18;102587.84;;;18.78;52.09
48053;BME280;33824;51.600;5.718;2023-05-25T12:11:46;102588.22;;;18.90;52.63
48053;BME280;33824;51.600;5.718;2023-05-25T12:14:11;102589.31;;;18.95;52.31
48053;BME280;33824;51.600;5.718;2023-05-25T12:16:37;102574.94;;;19.24;51.52
48053;BME280;33824;51.600;5.718;2023-05-25T12:19:03;102581.78;;;19.56;50.49
48053;BME280;33824;51.600;5.718;2023-05-25T12:21:30;102570.34;;;19.75;50.45
48053;BME280;33824;51.600;5.718;2023-05-25T12:23:56;102567.81;;;19.95;50.34
48053;BME280;33824;51.600;5.718;2023-05-25T12:26:22;102562.47;;;20.01;50.03
48053;BME280;33824;51.600;5.718;2023-05-25T12:29:04;102559.44;;;19.90;49.72
48053;BME280;33824;51.600;5.718;2023-05-25T12:31:32;102563.97;;;20.04;50.26
48053;BME280;33824;51.600;5.718;2023-05-25T12:34:14;102553.66;;;19.93;49.71
48053;BME280;33824;51.600;5.718;2023-05-25T12:36:47;102567.28;;;19.78;50.04
48053;BME280;33824;51.600;5.718;2023-05-25T12:39:15;102564.94;;;19.75;50.21
48053;BME280;33824;51.600;5.718;2023-05-25T12:44:17;102567.34;;;19.34;49.38
48053;BME280;33824;51.600;5.718;2023-05-25T12:46:43;102567.16;;;19.50;50.60
48053;BME280;33824;51.600;5.718;2023-05-25T12:49:31;102568.13;;;19.43;48.97
48053;BME280;33824;51.600;5.718;2023-05-25T12:52:00;102574.84;;;19.47;50.12
48053;BME280;33824;51.600;5.718;2023-05-25T12:54:39;102572.19;;;19.53;50.52
48053;BME280;33824;51.600;5.718;2023-05-25T12:57:10;102572.69;;;19.42;50.74
48053;BME280;33824;51.600;5.718;2023-05-25T12:59:37;102576.31;;;19.35;51.16
48053;BME280;33824;51.600;5.718;2023-05-25T13:02:06;102564.63;;;18.98;51.27
48053;BME280;33824;51.600;5.718;2023-05-25T13:04:33;102567.81;;;19.02;51.19
48053;BME280;33824;51.600;5.718;2023-05-25T13:06:59;102571.59;;;19.07;51.71
48053;BME280;33824;51.600;5.718;2023-05-25T13:09:25;102567.00;;;19.23;51.65
48053;BME280;33824;51.600;5.718;2023-05-25T13:11:55;102565.81;;;19.10;50.47